Time;durP1;ratioP1;P1;durP2;ratioP2;P2;SDS_P1;SDS_P2;PMS_P1;PMS_P2;Temp;Humidity;BMP_temperature;BMP_pressure;BME280_temperature;BME280_humidity;BME280_pressure;Samples;Min_cycle;Max_cycle;Signal;HPM_P1;HPM_P2
2022/03/22 00:01:43;;;;;;;20.38;13.80;;;;;;;;;;4955232;28;20569;-71
2022/03/22 00:04:12;;;;;;;20.10;14.75;;;;;;;;;;4956904;28;20158;-71
2022/03/22 00:29:24;;;;;;;17.58;14.98;;;;;;;;;;4972969;28;20602;-72
2022/03/22 00:31:56;;;;;;;28.85;16.40;;;;;;;;;;4959919;28;20498;-71
2022/03/22 00:34:28;;;;;;;19.77;14.45;;;;;;;;;;4973736;28;20063;-72
2022/03/22 00:36:58;;;;;;;20.83;16.23;;;;;;;;;;4974050;28;20074;-72
2022/03/22 00:39:28;;;;;;;21.10;14.40;;;;;;;;;;4974920;28;20049;-72
2022/03/22 00:41:58;;;;;;;18.65;15.65;;;;;;;;;;4975090;28;20047;-74
2022/03/22 00:44:32;;;;;;;18.80;15.15;;;;;;;;;;4975407;28;20057;-73
2022/03/22 00:47:02;;;;;;;21.67;14.52;;;;;;;;;;4975514;28;20061;-73
2022/03/22 00:49:34;;;;;;;20.77;14.27;;;;;;;;;;4975461;28;20047;-73
2022/03/22 00:52:07;;;;;;;18.00;14.95;;;;;;;;;;4975577;28;20054;-72
2022/03/22 00:54:39;;;;;;;24.27;16.90;;;;;;;;;;4957863;28;20085;-72
2022/03/22 00:57:09;;;;;;;16.63;13.85;;;;;;;;;;4973189;28;20502;-72
2022/03/22 01:02:26;;;;;;;16.23;14.55;;;;;;;;;;4972728;28;20079;-72
2022/03/22 01:04:58;;;;;;;17.75;14.25;;;;;;;;;;4958699;28;20055;-70
2022/03/22 01:07:27;;;;;;;16.90;13.82;;;;;;;;;;4975493;28;20054;-70
2022/03/22 01:09:57;;;;;;;18.63;14.25;;;;;;;;;;4975542;28;20101;-71
2022/03/22 01:12:27;;;;;;;18.30;14.32;;;;;;;;;;4975186;28;20054;-70
2022/03/22 01:14:58;;;;;;;19.10;14.77;;;;;;;;;;4975250;28;20063;-70
2022/03/22 01:17:31;;;;;;;18.20;14.70;;;;;;;;;;4975039;28;20051;-68
2022/03/22 01:20:02;;;;;;;14.23;12.77;;;;;;;;;;4974442;28;20051;-67
2022/03/22 01:22:30;;;;;;;20.23;14.68;;;;;;;;;;4974746;28;20046;-68
2022/03/22 01:25:01;;;;;;;19.13;14.90;;;;;;;;;;4975184;28;20054;-67
2022/03/22 01:27:29;;;;;;;16.52;14.13;;;;;;;;;;4971481;28;20387;-69
2022/03/22 01:30:01;;;;;;;15.98;13.98;;;;;;;;;;4974684;28;20082;-69
2022/03/22 01:32:32;;;;;;;32.03;14.50;;;;;;;;;;4973756;28;20057;-69
2022/03/22 01:35:01;;;;;;;15.35;13.60;;;;;;;;;;4974438;28;20090;-69
2022/03/22 01:37:32;;;;;;;17.92;15.38;;;;;;;;;;4974993;28;20111;-69
2022/03/22 01:40:07;;;;;;;18.38;14.13;;;;;;;;;;4973847;28;20063;-69
2022/03/22 01:42:38;;;;;;;20.13;13.55;;;;;;;;;;4974601;28;20533;-68
2022/03/22 01:45:11;;;;;;;15.77;13.25;;;;;;;;;;4974235;28;20053;-68
2022/03/22 01:47:47;;;;;;;17.75;15.27;;;;;;;;;;4971534;28;20122;-68
2022/03/22 01:50:17;;;;;;;16.02;13.73;;;;;;;;;;4975287;28;20065;-69
2022/03/22 01:52:47;;;;;;;18.15;14.93;;;;;;;;;;4975530;28;20521;-69
2022/03/22 01:55:18;;;;;;;19.23;13.30;;;;;;;;;;4975317;28;20070;-69
2022/03/22 01:57:48;;;;;;;16.15;14.32;;;;;;;;;;4969145;28;20089;-68
2022/03/22 02:00:20;;;;;;;21.75;14.57;;;;;;;;;;4969553;28;20413;-69
2022/03/22 02:05:52;;;;;;;19.38;13.73;;;;;;;;;;4974606;28;20067;-69
2022/03/22 02:08:24;;;;;;;16.25;13.20;;;;;;;;;;4975239;28;20109;-69
2022/03/22 02:10:53;;;;;;;21.23;14.52;;;;;;;;;;4969113;28;20113;-68
2022/03/22 02:13:20;;;;;;;21.48;14.20;;;;;;;;;;4975088;28;20062;-68
2022/03/22 02:15:53;;;;;;;18.20;14.18;;;;;;;;;;4974694;28;20051;-68
2022/03/22 02:18:24;;;;;;;18.20;13.75;;;;;;;;;;4975152;28;20042;-68
2022/03/22 02:20:55;;;;;;;17.83;14.27;;;;;;;;;;4974986;28;20077;-68
2022/03/22 02:24:04;;;;;;;22.88;16.60;;;;;;;;;;4974905;28;20101;-68
2022/03/22 02:26:34;;;;;;;20.05;16.65;;;;;;;;;;4895883;29;20084;-68
2022/03/22 02:29:03;;;;;;;19.67;16.42;;;;;;;;;;4896263;29;20058;-68
2022/03/22 02:31:33;;;;;;;22.42;16.50;;;;;;;;;;4937565;28;20055;-68
2022/03/22 02:34:03;;;;;;;19.08;13.52;;;;;;;;;;4969001;28;20073;-68
2022/03/22 02:36:32;;;;;;;18.60;15.05;;;;;;;;;;4973517;28;20066;-68
2022/03/22 02:39:01;;;;;;;23.55;15.98;;;;;;;;;;4970601;28;20207;-68
2022/03/22 02:41:29;;;;;;;20.98;16.20;;;;;;;;;;4974693;28;20487;-68
2022/03/22 02:43:59;;;;;;;20.55;16.25;;;;;;;;;;4974572;28;20129;-68
2022/03/22 02:46:27;;;;;;;23.33;17.13;;;;;;;;;;4974481;28;20109;-68
2022/03/22 02:48:55;;;;;;;20.55;17.80;;;;;;;;;;4974165;28;20058;-68
2022/03/22 02:51:23;;;;;;;20.20;16.10;;;;;;;;;;4974289;28;20133;-68
2022/03/22 02:53:52;;;;;;;18.92;16.13;;;;;;;;;;4974414;28;20070;-68
2022/03/22 02:56:20;;;;;;;21.23;16.00;;;;;;;;;;4966993;28;20055;-68
2022/03/22 02:58:49;;;;;;;20.85;16.70;;;;;;;;;;4978528;28;20055;-68
2022/03/22 03:01:18;;;;;;;21.10;16.55;;;;;;;;;;4978456;28;20058;-68
2022/03/22 03:03:47;;;;;;;21.65;17.17;;;;;;;;;;4978438;28;20137;-68
2022/03/22 03:06:15;;;;;;;21.23;16.90;;;;;;;;;;4978494;28;20527;-70
2022/03/22 03:08:43;;;;;;;20.13;15.15;;;;;;;;;;4978435;28;20058;-69
2022/03/22 03:11:12;;;;;;;18.08;15.50;;;;;;;;;;4978060;28;20051;-69
2022/03/22 03:16:27;;;;;;;21.95;16.35;;;;;;;;;;4977961;28;20100;-69
2022/03/22 03:18:56;;;;;;;22.20;17.92;;;;;;;;;;4977794;28;20058;-69
2022/03/22 03:21:25;;;;;;;20.35;16.98;;;;;;;;;;4977667;28;20054;-69
2022/03/22 03:23:54;;;;;;;22.55;17.00;;;;;;;;;;4978060;28;20137;-69
2022/03/22 03:26:23;;;;;;;22.45;17.63;;;;;;;;;;4977701;28;20517;-69
2022/03/22 03:28:51;;;;;;;19.98;17.55;;;;;;;;;;4977897;28;20521;-69
2022/03/22 03:31:20;;;;;;;22.80;17.83;;;;;;;;;;4977715;28;20055;-69
2022/03/22 03:33:48;;;;;;;23.77;16.67;;;;;;;;;;4977653;28;20058;-69
2022/03/22 03:36:17;;;;;;;24.48;17.63;;;;;;;;;;4977245;28;20063;-70
2022/03/22 03:38:48;;;;;;;20.77;17.08;;;;;;;;;;4976445;28;20146;-70
2022/03/22 03:47:03;;;;;;;22.92;17.75;;;;;;;;;;4961971;28;20046;-69
2022/03/22 03:47:04;;;;;;;20.23;17.25;;;;;;;;;;4975812;28;20130;-69
2022/03/22 03:49:39;;;;;;;24.63;17.05;;;;;;;;;;4976413;28;20078;-69
2022/03/22 03:52:19;;;;;;;23.30;18.30;;;;;;;;;;4976188;28;20154;-70
2022/03/22 03:54:47;;;;;;;24.65;17.33;;;;;;;;;;4976427;28;20054;-69
2022/03/22 03:57:15;;;;;;;22.83;17.27;;;;;;;;;;4976572;28;20061;-70
2022/03/22 03:59:43;;;;;;;21.30;17.58;;;;;;;;;;4975967;28;20078;-69
2022/03/22 04:02:11;;;;;;;21.10;17.42;;;;;;;;;;4976321;28;20058;-69
2022/03/22 04:04:40;;;;;;;17.90;14.85;;;;;;;;;;4976254;28;20055;-70
2022/03/22 04:07:11;;;;;;;23.92;18.70;;;;;;;;;;4975993;28;20047;-68
2022/03/22 04:09:41;;;;;;;22.05;15.20;;;;;;;;;;4975782;28;20058;-68
2022/03/22 04:12:14;;;;;;;23.55;17.67;;;;;;;;;;4976218;28;20516;-68
2022/03/22 04:14:43;;;;;;;21.75;16.77;;;;;;;;;;4975921;28;20054;-68
2022/03/22 04:17:11;;;;;;;25.48;17.08;;;;;;;;;;4975975;28;20050;-68
2022/03/22 04:19:39;;;;;;;20.83;16.73;;;;;;;;;;4975567;28;20050;-68
2022/03/22 04:22:08;;;;;;;25.73;17.50;;;;;;;;;;4976067;28;20082;-68
2022/03/22 04:24:37;;;;;;;26.80;17.92;;;;;;;;;;4975598;28;20053;-69
2022/03/22 04:32:43;;;;;;;24.13;18.00;;;;;;;;;;4975665;28;20062;-68
2022/03/22 04:35:19;;;;;;;23.88;18.65;;;;;;;;;;4975533;28;20513;-68
2022/03/22 04:38:01;;;;;;;25.02;19.27;;;;;;;;;;5066697;28;20412;-69
2022/03/22 04:40:31;;;;;;;19.65;17.52;;;;;;;;;;5061169;28;20119;-67
2022/03/22 04:43:01;;;;;;;29.92;18.15;;;;;;;;;;5055002;28;20513;-67
2022/03/22 04:45:31;;;;;;;23.35;19.17;;;;;;;;;;5051203;28;20045;-67
2022/03/22 04:47:59;;;;;;;20.90;15.70;;;;;;;;;;5051147;28;20041;-67
2022/03/22 04:50:28;;;;;;;35.20;18.67;;;;;;;;;;5050954;28;20045;-67
2022/03/22 04:58:33;;;;;;;22.45;17.77;;;;;;;;;;5070011;28;20067;-69
2022/03/22 05:01:04;;;;;;;24.02;17.88;;;;;;;;;;5070339;28;20071;-68
2022/03/22 05:03:34;;;;;;;33.08;20.55;;;;;;;;;;5069484;28;20049;-69
2022/03/22 05:08:50;;;;;;;20.40;18.23;;;;;;;;;;5050694;28;20060;-69
2022/03/22 05:11:19;;;;;;;24.00;18.77;;;;;;;;;;5050879;28;20052;-69
2022/03/22 05:13:49;;;;;;;28.73;19.58;;;;;;;;;;5050093;28;20395;-69
2022/03/22 05:16:17;;;;;;;25.70;18.85;;;;;;;;;;5050570;28;20106;-69
2022/03/22 05:18:47;;;;;;;23.55;18.75;;;;;;;;;;5053125;28;20055;-69
2022/03/22 05:21:16;;;;;;;25.30;19.48;;;;;;;;;;5069861;28;20547;-69
2022/03/22 05:23:45;;;;;;;29.67;20.85;;;;;;;;;;5069654;28;20056;-69
2022/03/22 05:26:14;;;;;;;25.08;18.92;;;;;;;;;;5069495;28;20055;-68
2022/03/22 05:28:43;;;;;;;27.00;18.95;;;;;;;;;;5069643;28;20067;-68
2022/03/22 05:31:15;;;;;;;28.45;19.05;;;;;;;;;;5069231;28;20056;-69
2022/03/22 05:33:43;;;;;;;26.73;20.83;;;;;;;;;;5101637;28;20098;-69
2022/03/22 05:36:14;;;;;;;30.38;17.88;;;;;;;;;;5066543;28;20056;-69
2022/03/22 05:38:44;;;;;;;21.65;17.67;;;;;;;;;;5049827;28;20052;-69
2022/03/22 05:41:13;;;;;;;23.63;17.63;;;;;;;;;;5049592;28;20049;-68
2022/03/22 05:43:42;;;;;;;21.20;17.20;;;;;;;;;;5049718;28;20059;-68
2022/03/22 05:46:10;;;;;;;24.27;18.13;;;;;;;;;;5049235;28;20478;-68
2022/03/22 05:48:39;;;;;;;28.35;17.67;;;;;;;;;;5040214;28;20052;-67
2022/03/22 05:51:07;;;;;;;21.63;18.48;;;;;;;;;;5036178;28;20128;-69
2022/03/22 05:53:36;;;;;;;25.63;16.98;;;;;;;;;;5036051;28;20049;-68
2022/03/22 05:56:05;;;;;;;26.05;18.00;;;;;;;;;;5036056;28;20106;-68
2022/03/22 05:58:34;;;;;;;20.30;17.20;;;;;;;;;;5036280;28;20050;-67
2022/03/22 06:01:03;;;;;;;30.58;20.02;;;;;;;;;;5040873;28;20061;-69
2022/03/22 06:03:33;;;;;;;27.27;19.40;;;;;;;;;;5038253;28;20053;-69
2022/03/22 06:06:02;;;;;;;25.63;19.30;;;;;;;;;;5038072;28;20050;-69
2022/03/22 06:08:30;;;;;;;24.48;18.23;;;;;;;;;;5038232;28;20459;-69
2022/03/22 06:10:59;;;;;;;31.67;19.88;;;;;;;;;;5040073;28;20045;-69
2022/03/22 06:13:29;;;;;;;24.15;18.67;;;;;;;;;;5038351;28;20057;-70
2022/03/22 06:15:57;;;;;;;28.35;19.05;;;;;;;;;;5038131;28;20053;-70
2022/03/22 06:18:26;;;;;;;25.45;19.02;;;;;;;;;;5039500;28;20049;-69
2022/03/22 06:20:54;;;;;;;24.80;19.13;;;;;;;;;;5038427;28;20076;-68
2022/03/22 06:23:23;;;;;;;30.33;19.98;;;;;;;;;;5037451;28;20381;-71
2022/03/22 06:25:51;;;;;;;27.65;20.48;;;;;;;;;;5039412;28;20060;-66
2022/03/22 06:28:21;;;;;;;29.10;21.83;;;;;;;;;;5041992;28;20049;-66
2022/03/22 06:30:50;;;;;;;24.33;21.27;;;;;;;;;;5054703;28;20504;-66
2022/03/22 06:33:18;;;;;;;28.52;19.63;;;;;;;;;;5035433;28;20132;-66
2022/03/22 06:35:47;;;;;;;23.45;20.38;;;;;;;;;;5040509;28;20136;-66
2022/03/22 06:38:15;;;;;;;33.15;21.85;;;;;;;;;;5035314;28;20045;-67
2022/03/22 06:40:45;;;;;;;27.05;20.08;;;;;;;;;;5035063;28;20057;-66
2022/03/22 06:43:15;;;;;;;32.47;19.77;;;;;;;;;;5035270;28;20042;-67
2022/03/22 06:45:45;;;;;;;24.95;19.25;;;;;;;;;;5035088;28;20460;-66
2022/03/22 06:48:15;;;;;;;30.50;18.73;;;;;;;;;;5053954;28;20068;-67
2022/03/22 06:50:49;;;;;;;24.73;18.23;;;;;;;;;;5054495;28;20135;-67
2022/03/22 06:53:33;;;;;;;25.05;18.73;;;;;;;;;;5053194;28;20136;-67
2022/03/22 06:56:03;;;;;;;29.45;20.52;;;;;;;;;;5044607;28;20045;-65
2022/03/22 06:58:41;;;;;;;30.35;18.08;;;;;;;;;;5053637;28;20136;-65
2022/03/22 07:01:10;;;;;;;33.80;21.05;;;;;;;;;;5034326;28;20041;-66
2022/03/22 07:03:43;;;;;;;27.67;18.05;;;;;;;;;;5035263;28;20049;-68
2022/03/22 07:06:12;;;;;;;23.38;18.63;;;;;;;;;;5034938;28;20049;-67
2022/03/22 07:08:40;;;;;;;24.33;18.85;;;;;;;;;;5043203;28;20584;-66
2022/03/22 07:13:56;;;;;;;22.13;17.67;;;;;;;;;;5043200;28;20065;-65
2022/03/22 07:16:28;;;;;;;23.27;17.58;;;;;;;;;;5039959;28;20125;-67
2022/03/22 07:18:57;;;;;;;23.65;16.73;;;;;;;;;;5040150;28;20059;-64
2022/03/22 07:21:26;;;;;;;25.45;16.70;;;;;;;;;;5037135;28;20107;-65
2022/03/22 07:23:57;;;;;;;20.88;16.63;;;;;;;;;;5038188;28;20080;-64
2022/03/22 07:26:26;;;;;;;31.00;18.13;;;;;;;;;;5046184;28;20088;-65
2022/03/22 07:28:55;;;;;;;23.23;16.25;;;;;;;;;;5038655;28;20049;-65
2022/03/22 07:31:23;;;;;;;22.85;16.73;;;;;;;;;;5035811;28;20504;-66
2022/03/22 07:33:52;;;;;;;24.10;17.90;;;;;;;;;;5043744;28;20052;-65
2022/03/22 07:36:21;;;;;;;22.67;17.08;;;;;;;;;;5049542;28;20060;-65
2022/03/22 07:39:11;;;;;;;23.83;16.42;;;;;;;;;;5047719;28;20076;-65
2022/03/22 07:41:38;;;;;;;25.13;17.67;;;;;;;;;;5052295;28;20053;-65
2022/03/22 07:44:13;;;;;;;22.17;17.42;;;;;;;;;;5051200;28;20522;-64
2022/03/22 07:47:01;;;;;;;18.63;16.60;;;;;;;;;;5033474;28;20489;-64
2022/03/22 07:55:10;;;;;;;22.02;15.38;;;;;;;;;;5035118;28;20045;-64
2022/03/22 07:57:39;;;;;;;19.50;17.20;;;;;;;;;;5033784;28;20069;-65
2022/03/22 08:00:09;;;;;;;19.92;15.77;;;;;;;;;;5033825;28;20625;-65
2022/03/22 08:02:37;;;;;;;23.98;16.75;;;;;;;;;;5034059;28;20049;-65
2022/03/22 08:05:08;;;;;;;19.85;15.70;;;;;;;;;;5034137;28;20045;-65
2022/03/22 08:07:37;;;;;;;22.90;16.90;;;;;;;;;;5034017;28;20049;-64
2022/03/22 08:10:07;;;;;;;22.55;16.33;;;;;;;;;;5033663;28;20500;-64
2022/03/22 08:12:37;;;;;;;19.98;16.40;;;;;;;;;;5033380;28;20100;-64
2022/03/22 08:15:09;;;;;;;19.63;17.40;;;;;;;;;;5033628;28;20420;-65
2022/03/22 08:17:39;;;;;;;22.60;16.45;;;;;;;;;;5033609;28;20107;-64
2022/03/22 08:20:10;;;;;;;27.42;17.00;;;;;;;;;;5033313;28;20053;-65
2022/03/22 08:22:52;;;;;;;22.40;16.33;;;;;;;;;;5033266;28;20048;-64
2022/03/22 08:25:28;;;;;;;23.33;15.45;;;;;;;;;;5034017;28;20124;-65
2022/03/22 08:28:02;;;;;;;24.33;16.50;;;;;;;;;;5033617;28;20045;-65
2022/03/22 08:30:33;;;;;;;24.40;16.95;;;;;;;;;;5033204;28;20060;-65
2022/03/22 08:33:06;;;;;;;23.17;17.23;;;;;;;;;;5033699;28;20131;-65
2022/03/22 08:35:36;;;;;;;20.77;17.45;;;;;;;;;;5033031;28;20132;-65
2022/03/22 08:38:04;;;;;;;24.95;17.75;;;;;;;;;;5032113;28;20061;-65
2022/03/22 08:40:33;;;;;;;21.20;18.33;;;;;;;;;;5033095;28;20497;-65
2022/03/22 08:43:05;;;;;;;22.88;17.15;;;;;;;;;;5033026;28;20042;-65
2022/03/22 08:45:34;;;;;;;26.27;17.15;;;;;;;;;;5063317;28;20128;-65
2022/03/22 08:48:09;;;;;;;22.50;17.17;;;;;;;;;;5052688;28;20099;-65
2022/03/22 08:50:39;;;;;;;22.33;19.98;;;;;;;;;;5053108;28;20041;-65
2022/03/22 08:53:11;;;;;;;20.20;18.13;;;;;;;;;;5042675;28;20049;-65
2022/03/22 08:55:45;;;;;;;21.90;19.52;;;;;;;;;;5042049;28;20049;-65
2022/03/22 08:58:16;;;;;;;23.13;18.88;;;;;;;;;;5036722;28;20049;-65
2022/03/22 09:00:45;;;;;;;23.65;21.20;;;;;;;;;;5033169;28;20049;-65
2022/03/22 09:03:14;;;;;;;24.92;20.23;;;;;;;;;;5033286;28;20053;-66
2022/03/22 09:08:31;;;;;;;27.23;21.15;;;;;;;;;;5033099;28;20416;-67
2022/03/22 09:10:59;;;;;;;24.63;19.85;;;;;;;;;;5032580;28;20073;-65
2022/03/22 09:13:29;;;;;;;21.83;19.65;;;;;;;;;;5033149;28;20073;-65
2022/03/22 09:15:59;;;;;;;22.08;19.60;;;;;;;;;;5032929;28;20057;-65
2022/03/22 09:18:27;;;;;;;23.00;20.55;;;;;;;;;;5032754;28;20049;-66
2022/03/22 09:20:56;;;;;;;24.85;21.55;;;;;;;;;;5032883;28;20041;-66
2022/03/22 09:23:26;;;;;;;23.02;20.52;;;;;;;;;;5034249;28;20507;-65
2022/03/22 09:25:55;;;;;;;25.88;21.38;;;;;;;;;;5046924;28;20045;-64
2022/03/22 09:28:24;;;;;;;21.50;19.30;;;;;;;;;;5054150;28;20068;-67
2022/03/22 09:30:53;;;;;;;21.67;18.92;;;;;;;;;;5054871;28;20045;-65
2022/03/22 09:33:22;;;;;;;21.00;18.90;;;;;;;;;;5054819;28;20132;-66
2022/03/22 09:35:53;;;;;;;24.08;19.77;;;;;;;;;;5053640;28;20055;-66
2022/03/22 09:38:22;;;;;;;22.08;19.80;;;;;;;;;;5054317;28;20136;-66
2022/03/22 09:40:55;;;;;;;22.27;20.10;;;;;;;;;;5054614;28;20071;-66
2022/03/22 09:43:23;;;;;;;22.27;19.92;;;;;;;;;;5054596;28;20477;-66
2022/03/22 09:45:52;;;;;;;22.48;19.58;;;;;;;;;;5054429;28;20052;-66
2022/03/22 09:48:20;;;;;;;27.10;20.27;;;;;;;;;;5053584;28;20138;-66
2022/03/22 09:53:37;;;;;;;22.30;20.17;;;;;;;;;;5055534;28;20081;-66
2022/03/22 09:56:07;;;;;;;21.67;19.48;;;;;;;;;;5055803;28;20053;-67
2022/03/22 09:58:37;;;;;;;21.67;19.42;;;;;;;;;;5039054;28;20139;-66
2022/03/22 10:01:06;;;;;;;22.45;19.30;;;;;;;;;;5036033;28;20056;-66
2022/03/22 10:03:35;;;;;;;25.23;20.10;;;;;;;;;;5035691;28;20053;-67
2022/03/22 10:06:07;;;;;;;21.80;19.58;;;;;;;;;;5035888;28;20136;-66
2022/03/22 10:08:50;;;;;;;22.45;18.58;;;;;;;;;;5035685;28;20136;-66
2022/03/22 10:11:20;;;;;;;28.20;18.45;;;;;;;;;;5035643;28;20179;-67
2022/03/22 10:13:55;;;;;;;24.60;19.95;;;;;;;;;;5035971;28;20084;-66
2022/03/22 10:16:27;;;;;;;23.45;19.02;;;;;;;;;;5035748;28;20046;-67
2022/03/22 10:18:55;;;;;;;22.58;18.70;;;;;;;;;;5034521;28;20076;-67
2022/03/22 10:21:25;;;;;;;25.23;17.65;;;;;;;;;;5035580;28;20136;-67
2022/03/22 10:23:55;;;;;;;18.60;16.63;;;;;;;;;;5035647;28;20046;-67
2022/03/22 10:26:35;;;;;;;22.33;18.02;;;;;;;;;;5040434;28;20064;-67
2022/03/22 10:29:07;;;;;;;22.02;16.70;;;;;;;;;;5035289;28;20042;-66
2022/03/22 10:31:40;;;;;;;20.42;15.90;;;;;;;;;;5035387;28;20456;-67
2022/03/22 10:34:09;;;;;;;;;;;;;;;;;;5048076;28;20045;-67
2022/03/22 10:36:39;;;;;;;13.32;12.02;;;;;;;;;;5054829;28;20283;-67
2022/03/22 10:39:09;;;;;;;15.77;14.13;;;;;;;;;;5054511;28;20384;-66
2022/03/22 10:41:40;;;;;;;14.75;13.15;;;;;;;;;;5053623;28;20397;-66
2022/03/22 10:44:15;;;;;;;15.20;12.98;;;;;;;;;;5053883;28;20091;-67
2022/03/22 10:46:46;;;;;;;14.88;13.35;;;;;;;;;;5054223;28;20126;-66
2022/03/22 10:49:16;;;;;;;17.42;13.80;;;;;;;;;;5051123;28;20045;-66
2022/03/22 10:51:56;;;;;;;20.27;13.55;;;;;;;;;;5047614;28;20140;-67
2022/03/22 10:54:24;;;;;;;18.40;12.93;;;;;;;;;;5054486;28;20499;-66
2022/03/22 10:56:55;;;;;;;17.83;14.82;;;;;;;;;;5036735;28;20127;-66
2022/03/22 10:59:25;;;;;;;16.33;14.73;;;;;;;;;;5035276;28;20107;-66
2022/03/22 11:01:57;;;;;;;20.30;14.45;;;;;;;;;;5034908;28;20045;-66
2022/03/22 11:04:26;;;;;;;18.52;14.00;;;;;;;;;;5051287;28;20045;-66
2022/03/22 11:07:02;;;;;;;16.23;14.55;;;;;;;;;;5054028;28;20128;-65
2022/03/22 11:09:31;;;;;;;15.88;14.35;;;;;;;;;;5054517;28;20500;-66
2022/03/22 11:12:01;;;;;;;17.80;13.95;;;;;;;;;;5054210;28;20045;-66
2022/03/22 11:14:32;;;;;;;16.42;13.55;;;;;;;;;;5053278;28;20045;-67
2022/03/22 11:17:00;;;;;;;19.90;14.07;;;;;;;;;;5052638;28;20107;-68
2022/03/22 11:19:29;;;;;;;17.33;15.70;;;;;;;;;;5051306;28;20072;-70
2022/03/22 11:22:04;;;;;;;19.08;14.25;;;;;;;;;;5044769;28;20041;-68
2022/03/22 11:24:36;;;;;;;18.08;14.68;;;;;;;;;;5054110;28;20053;-69
2022/03/22 11:27:08;;;;;;;23.35;14.50;;;;;;;;;;5053899;28;20065;-68
2022/03/22 11:29:40;;;;;;;20.40;15.30;;;;;;;;;;5053767;28;20103;-67
2022/03/22 11:34:57;;;;;;;16.45;14.73;;;;;;;;;;5053495;28;20139;-68
2022/03/22 11:37:32;;;;;;;16.67;13.65;;;;;;;;;;5054132;28;20053;-68
2022/03/22 11:42:56;;;;;;;16.60;13.85;;;;;;;;;;5053434;28;20562;-68
2022/03/22 11:45:25;;;;;;;16.40;13.95;;;;;;;;;;5050157;28;20049;-68
2022/03/22 11:47:54;;;;;;;14.25;12.88;;;;;;;;;;5052817;28;20048;-68
2022/03/22 11:50:23;;;;;;;15.95;12.77;;;;;;;;;;5052485;28;20044;-69
2022/03/22 11:53:00;;;;;;;18.38;13.23;;;;;;;;;;5051977;28;20079;-68
2022/03/22 11:55:30;;;;;;;13.35;12.05;;;;;;;;;;5053181;28;20048;-69
2022/03/22 11:58:10;;;;;;;15.73;12.95;;;;;;;;;;5037432;28;20107;-69
2022/03/22 12:01:13;;;;;;;15.13;12.68;;;;;;;;;;5033717;28;20503;-69
2022/03/22 12:03:51;;;;;;;13.15;11.80;;;;;;;;;;5032768;28;20056;-69
2022/03/22 12:06:20;;;;;;;15.25;11.70;;;;;;;;;;5032955;28;20128;-69
2022/03/22 12:08:50;;;;;;;13.80;12.15;;;;;;;;;;5041019;28;20053;-69
2022/03/22 12:11:18;;;;;;;14.20;12.75;;;;;;;;;;5049871;28;20107;-69
2022/03/22 12:13:49;;;;;;;15.10;13.63;;;;;;;;;;5052362;28;20138;-69
2022/03/22 12:16:25;;;;;;;13.20;11.60;;;;;;;;;;5053107;28;20114;-69
2022/03/22 12:18:53;;;;;;;15.85;13.55;;;;;;;;;;5053355;28;20052;-69
2022/03/22 12:21:22;;;;;;;13.50;11.98;;;;;;;;;;5052315;28;20461;-71
2022/03/22 12:23:51;;;;;;;12.75;11.55;;;;;;;;;;5053002;28;20521;-69
2022/03/22 12:26:25;;;;;;;14.13;11.23;;;;;;;;;;5043814;28;20049;-72
2022/03/22 12:28:54;;;;;;;12.40;10.60;;;;;;;;;;5045814;28;20106;-69
2022/03/22 12:31:25;;;;;;;12.32;11.02;;;;;;;;;;5043505;28;20046;-70
2022/03/22 12:33:58;;;;;;;13.48;12.18;;;;;;;;;;5033193;28;20144;-70
2022/03/22 12:36:26;;;;;;;14.93;13.40;;;;;;;;;;5032201;28;20053;-71
2022/03/22 12:38:56;;;;;;;13.20;11.30;;;;;;;;;;5033136;28;20049;-70
2022/03/22 12:41:25;;;;;;;12.18;10.98;;;;;;;;;;5033078;28;20132;-69
2022/03/22 12:43:54;;;;;;;13.05;11.82;;;;;;;;;;5033311;28;20081;-70
2022/03/22 12:46:22;;;;;;;15.75;12.02;;;;;;;;;;5033222;28;20050;-70
2022/03/22 12:48:54;;;;;;;12.77;11.48;;;;;;;;;;5032045;28;20049;-70
2022/03/22 12:51:25;;;;;;;12.75;11.32;;;;;;;;;;5033212;28;20057;-70
2022/03/22 12:53:53;;;;;;;13.30;11.90;;;;;;;;;;5033351;28;20061;-70
2022/03/22 12:56:21;;;;;;;16.23;12.73;;;;;;;;;;5039615;28;20464;-68
2022/03/22 12:58:49;;;;;;;14.77;11.95;;;;;;;;;;5035252;28;20084;-70
2022/03/22 13:01:18;;;;;;;14.93;11.90;;;;;;;;;;5037006;28;20056;-69
2022/03/22 13:03:46;;;;;;;14.68;11.85;;;;;;;;;;5036890;28;20042;-69
2022/03/22 13:06:17;;;;;;;15.40;10.98;;;;;;;;;;5037014;28;20132;-70
2022/03/22 13:11:35;;;;;;;12.55;11.02;;;;;;;;;;5037061;28;20076;-71
2022/03/22 13:16:58;;;;;;;12.32;11.13;;;;;;;;;;5036919;28;20091;-70
2022/03/22 13:19:31;;;;;;;13.43;11.48;;;;;;;;;;5036696;28;20053;-71
2022/03/22 13:22:00;;;;;;;13.32;10.70;;;;;;;;;;5036575;28;20448;-71
2022/03/22 13:24:28;;;;;;;13.18;11.88;;;;;;;;;;5036703;28;20556;-70
2022/03/22 13:27:02;;;;;;;13.05;11.70;;;;;;;;;;5055329;28;20049;-70
2022/03/22 13:29:39;;;;;;;11.43;10.32;;;;;;;;;;5037098;28;20049;-70
2022/03/22 13:32:10;;;;;;;13.07;11.70;;;;;;;;;;5036799;28;20089;-70
2022/03/22 13:35:02;;;;;;;14.88;11.90;;;;;;;;;;5036239;28;20049;-70
2022/03/22 13:37:46;;;;;;;16.92;12.80;;;;;;;;;;5036296;28;20108;-70
2022/03/22 13:40:15;;;;;;;13.13;11.75;;;;;;;;;;5036103;28;20081;-70
2022/03/22 13:42:55;;;;;;;12.75;11.55;;;;;;;;;;5036480;28;20499;-71
2022/03/22 13:45:27;;;;;;;16.15;13.02;;;;;;;;;;5036574;28;20416;-70
2022/03/22 13:47:58;;;;;;;12.93;11.63;;;;;;;;;;5046170;28;20381;-71
2022/03/22 13:50:28;;;;;;;14.40;11.88;;;;;;;;;;5056032;28;20107;-69
2022/03/22 13:53:04;;;;;;;14.25;12.93;;;;;;;;;;5055941;28;20044;-69
2022/03/22 13:55:35;;;;;;;14.55;12.77;;;;;;;;;;5050448;28;20132;-70
2022/03/22 13:58:10;;;;;;;13.90;12.50;;;;;;;;;;5055261;28;20132;-70
2022/03/22 14:00:52;;;;;;;14.45;12.85;;;;;;;;;;5055227;28;20403;-70
2022/03/22 14:03:22;;;;;;;15.57;12.68;;;;;;;;;;5055963;28;20059;-70
2022/03/22 14:05:51;;;;;;;12.38;11.27;;;;;;;;;;5049319;28;20469;-70
2022/03/22 14:08:24;;;;;;;14.43;13.13;;;;;;;;;;5051554;28;20087;-69
2022/03/22 14:10:54;;;;;;;16.35;12.52;;;;;;;;;;5052525;28;20045;-72
2022/03/22 14:13:25;;;;;;;15.27;11.95;;;;;;;;;;5054402;28;20049;-70
2022/03/22 14:15:55;;;;;;;16.48;14.25;;;;;;;;;;5054249;28;20471;-69
2022/03/22 14:18:23;;;;;;;18.17;12.70;;;;;;;;;;5051567;28;20083;-69
2022/03/22 14:20:53;;;;;;;13.27;12.07;;;;;;;;;;5054475;28;20051;-69
2022/03/22 14:23:22;;;;;;;13.43;12.07;;;;;;;;;;5053802;28;20071;-71
2022/03/22 14:25:51;;;;;;;18.08;11.98;;;;;;;;;;5053667;28;20049;-69
2022/03/22 14:28:20;;;;;;;14.43;12.93;;;;;;;;;;5070916;28;20041;-69
2022/03/22 14:30:50;;;;;;;16.77;13.75;;;;;;;;;;5052321;28;20056;-68
2022/03/22 14:33:18;;;;;;;20.17;12.73;;;;;;;;;;5054678;28;20037;-69
2022/03/22 14:35:53;;;;;;;14.30;12.45;;;;;;;;;;5053755;28;20076;-70
2022/03/22 14:38:31;;;;;;;14.90;12.90;;;;;;;;;;5055520;28;20402;-70
2022/03/22 14:41:01;;;;;;;18.58;13.30;;;;;;;;;;5054769;28;20131;-70
2022/03/22 14:43:31;;;;;;;14.68;13.10;;;;;;;;;;5055400;28;20484;-70
2022/03/22 14:45:59;;;;;;;26.33;12.80;;;;;;;;;;5054651;28;20447;-70
2022/03/22 14:48:27;;;;;;;14.00;12.70;;;;;;;;;;5054930;28;20053;-69
2022/03/22 14:50:56;;;;;;;14.85;12.73;;;;;;;;;;5054051;28;20128;-70
2022/03/22 14:58:59;;;;;;;13.80;12.02;;;;;;;;;;5037693;28;20058;-69
2022/03/22 15:01:31;;;;;;;14.50;12.73;;;;;;;;;;5034696;28;20386;-69
2022/03/22 15:04:02;;;;;;;16.25;11.60;;;;;;;;;;5034901;28;20056;-68
2022/03/22 15:06:32;;;;;;;14.02;11.85;;;;;;;;;;5034896;28;20052;-69
2022/03/22 15:09:05;;;;;;;18.80;11.88;;;;;;;;;;5034954;28;20052;-69
2022/03/22 15:11:35;;;;;;;19.30;14.18;;;;;;;;;;5034396;28;20049;-69
2022/03/22 15:14:08;;;;;;;13.90;12.50;;;;;;;;;;5034824;28;20095;-69
2022/03/22 15:16:38;;;;;;;14.00;11.80;;;;;;;;;;5034624;28;20049;-69
2022/03/22 15:19:07;;;;;;;15.23;12.73;;;;;;;;;;5034391;28;20298;-69
2022/03/22 15:21:35;;;;;;;14.13;12.32;;;;;;;;;;5033687;28;20053;-68
2022/03/22 15:24:06;;;;;;;19.25;14.02;;;;;;;;;;5034466;28;20049;-68
2022/03/22 15:26:35;;;;;;;14.73;11.68;;;;;;;;;;5034453;28;20416;-69
2022/03/22 15:29:04;;;;;;;13.73;12.43;;;;;;;;;;5034109;28;20081;-69
2022/03/22 15:31:35;;;;;;;17.42;13.15;;;;;;;;;;5034368;28;20103;-68
2022/03/22 15:34:04;;;;;;;13.40;11.85;;;;;;;;;;5034048;28;20061;-70
2022/03/22 15:36:32;;;;;;;21.23;16.45;;;;;;;;;;5033334;28;20057;-69
2022/03/22 15:39:01;;;;;;;17.90;16.02;;;;;;;;;;5033914;28;20042;-69
2022/03/22 15:41:30;;;;;;;17.90;13.27;;;;;;;;;;5034062;28;20141;-69
2022/03/22 15:44:00;;;;;;;14.90;11.98;;;;;;;;;;5033760;28;20413;-69
2022/03/22 15:46:36;;;;;;;24.80;13.70;;;;;;;;;;5034385;28;20079;-69
2022/03/22 15:49:05;;;;;;;15.95;13.68;;;;;;;;;;5034395;28;20050;-69
2022/03/22 15:51:35;;;;;;;17.35;13.13;;;;;;;;;;5034079;28;20049;-69
2022/03/22 15:54:04;;;;;;;14.73;13.23;;;;;;;;;;5033831;28;20433;-69
2022/03/22 15:56:34;;;;;;;15.32;13.73;;;;;;;;;;5041330;28;20081;-69
2022/03/22 15:59:03;;;;;;;15.38;13.35;;;;;;;;;;5033858;28;20046;-69